Home   Weather   Germany   Schwerin   Past weeks
Flag for Germany

Past Weather in Schwerin, Mecklenburg-Western Pomerania, Germany — Yesterday and Last 2 Weeks

Currently: 61 °F. Clear. (Weather station: Luebeck-Blankensee, Germany). See more current weather

Past Weather in Schwerin — Graph

°F

Schwerin Temperature Yesterday

Maximum temperature yesterday: 68 °F (at 2:20 pm)
Minimum temperature yesterday: 57 °F (at 2:20 am)
Average temperature yesterday: 63 °F

High & Low Weather Summary for the Past Weeks

 TemperatureHumidityPressure
High84 °F (Jul 9, 4:20 pm)100% (Jul 4, 9:20 am)30.27 "Hg (Jul 4, 9:20 am)
Low50 °F (Jul 5, 3:20 am)39% (Jul 15, 2:50 pm)29.45 "Hg (Jul 6, 5:20 pm)
Average64 °F74%29.88 "Hg
* Reported Jul 3 10:20 pm — Jul 18 10:20 pm, Schwerin. Weather by CustomWeather, © 2024

Note: Actual official high and low records may vary slightly from our data, if they occured in-between our weather recording intervals... More about our weather records

Schwerin Weather History for the Previous 24 Hours

Scroll right to see more
 ConditionsComfort  
Time TempWeatherWind HumidityBarometerVisibility
10:20 pm
Thu, Jul 18
63 °FClear.1 mph88%30.21 "HgN/A
9:50 pm64 °FClear.No wind88%30.21 "HgN/A
9:20 pm68 °FSunny.No wind73%30.21 "HgN/A
8:50 pm70 °FSunny.1 mph69%30.18 "HgN/A
8:20 pm73 °FSunny.3 mph65%30.18 "HgN/A
7:50 pm73 °FSunny.5 mph61%30.18 "Hg10 mi
7:20 pm75 °FPassing clouds.3 mph57%30.18 "HgN/A
6:50 pm75 °FPassing clouds.6 mph57%30.18 "HgN/A
6:20 pm73 °FPassing clouds.3 mph61%30.21 "HgN/A
5:20 pm75 °FPassing clouds.5 mph57%30.21 "HgN/A
4:50 pm73 °FPassing clouds.6 mph61%30.21 "HgN/A
4:20 pm72 °FPassing clouds.5 mph61%30.21 "HgN/A
3:50 pm73 °FScattered clouds.5 mph61%30.21 "HgN/A
3:20 pm73 °FPassing clouds.6 mph61%30.21 "HgN/A
2:50 pm73 °FSunny.6 mph61%30.21 "Hg10 mi
2:20 pm72 °FScattered clouds.7 mph61%30.24 "HgN/A
1:50 pm72 °FPassing clouds.3 mph61%30.24 "HgN/A
1:20 pm70 °FPartly sunny.7 mph69%30.24 "HgN/A
12:50 pm68 °FPartly sunny.5 mph69%30.24 "HgN/A
12:20 pm68 °FBroken clouds.5 mph69%30.24 "HgN/A
11:50 am66 °FBroken clouds.2 mph68%30.24 "HgN/A
11:20 am66 °FScattered clouds.5 mph73%30.24 "HgN/A
10:50 am64 °FPartly sunny.5 mph78%30.24 "HgN/A
10:20 am63 °FPartly sunny.3 mph77%30.24 "HgN/A
9:50 am61 °FOvercast.6 mph83%30.24 "HgN/A
8:50 am59 °FMostly cloudy.8 mph88%30.27 "HgN/A
8:20 am59 °FPartly sunny.7 mph88%30.24 "HgN/A
7:50 am59 °FPassing clouds.5 mph88%30.24 "HgN/A
7:20 am57 °FSunny.2 mph94%30.24 "Hg10 mi
6:50 am55 °FSunny.2 mph100%30.21 "Hg10 mi
6:20 am54 °FSunny.1 mph100%30.21 "Hg10 mi
5:50 am52 °FSunny.No wind100%30.21 "Hg1 mi
5:20 am52 °FSunny.No wind94%30.21 "Hg2 mi
4:20 am54 °FClear.2 mph100%30.21 "HgN/A
3:20 am55 °FClear.2 mph94%30.21 "HgN/A
2:50 am57 °FPassing clouds.2 mph88%30.21 "HgN/A
2:20 am59 °FOvercast.3 mph88%30.21 "HgN/A
1:50 am59 °FOvercast.3 mph88%30.18 "HgN/A
1:20 am57 °FPassing clouds.3 mph94%30.18 "HgN/A
12:50 am57 °FPassing clouds.5 mph94%30.18 "HgN/A
12:20 am59 °FClear.6 mph88%30.18 "HgN/A
11:50 pm
Wed, Jul 17
59 °FClear.6 mph88%30.18 "HgN/A
11:20 pm59 °FClear.5 mph88%30.18 "HgN/A
Weather by CustomWeather, © 2024

See weather overview